Stations météo

réclame
Mon MeteoGroup
Lagunas de Somoza, Espagne (8123): Température de l'air & dewpoint: 15.10.2017 12:00:00 - 21.10.2017 12:00:00 (CEST)Lagunas de Somoza, Espagne (8123): Vitesse du vent & gusts: 15.10.2017 12:00:00 - 21.10.2017 12:00:00 (CEST)Lagunas de Somoza, Espagne (8123): Direction du vent: 15.10.2017 12:00:00 - 21.10.2017 12:00:00 (CEST)Lagunas de Somoza, Espagne (8123): Quantités de précipitations: 15.10.2017 12:00:00 - 21.10.2017 12:00:00 (CEST)
Date & Time tt [°C] td [°C] ff [km/h] ff [knt] fx [km/h] fx [knt] dd rr [mm]
21.10.2017 12:00:00 - - - - - - - -
21.10.2017 11:00:00 10,1 1,7 21 12 30 16 W 0,0
21.10.2017 10:00:00 8,1 2,6 5 3 19 11 WNW 0,0
21.10.2017 09:00:00 6,5 2,8 8 4 33 18 WNW 0,0
21.10.2017 08:00:00 6,7 4,2 21 11 36 19 WNW -
21.10.2017 07:00:00 9,5 5,3 14 8 30 16 W 0,0
21.10.2017 06:00:00 10,3 7,0 16 9 25 13 W 0,0
21.10.2017 05:00:00 11,3 8,7 5 3 14 7 WNW 0,0
21.10.2017 04:00:00 12,1 7,4 10 5 22 12 N 0,0
21.10.2017 03:00:00 14,0 7,3 11 6 26 14 S 0,0
21.10.2017 02:00:00 14,4 6,8 14 8 29 15 SSW -
21.10.2017 01:00:00 14,0 6,4 15 8 32 17 SSW 0,0
21.10.2017 00:00:00 13,4 6,3 4 2 20 11 S 0,0
20.10.2017 23:00:00 14,1 6,9 3 2 17 9 S 0,0
20.10.2017 22:00:00 14,7 7,7 2 1 11 6 SW 0,0
20.10.2017 21:00:00 14,4 8,6 1 1 8 4 SSE 0,0
20.10.2017 20:00:00 15,0 6,3 0 0 9 5 NNW -
20.10.2017 19:00:00 16,7 5,7 5 3 11 6 N 0,0
20.10.2017 18:00:00 17,0 5,3 11 6 20 11 NE 0,0
20.10.2017 17:00:00 19,0 5,8 12 6 24 13 NE 0,0
20.10.2017 16:00:00 18,6 5,8 5 3 18 10 E 0,0
20.10.2017 15:00:00 16,8 6,3 7 4 19 10 ESE 0,0
20.10.2017 14:00:00 15,1 7,2 7 4 17 9 E -
20.10.2017 13:00:00 13,9 7,2 7 4 18 10 E 0,0
20.10.2017 12:00:00 12,7 7,8 4 2 9 5 SE 0,0
20.10.2017 11:00:00 10,9 9,0 2 1 7 4 NNW 0,0
20.10.2017 10:00:00 7,1 6,8 0 0 6 4 NW 0,0
20.10.2017 09:00:00 4,2 3,9 0 0 6 3 N 0,0
20.10.2017 08:00:00 4,2 3,9 1 1 7 4 NW -
20.10.2017 07:00:00 3,9 3,5 4 2 5 3 W 0,0
20.10.2017 06:00:00 5,8 5,5 3 1 11 6 NW 0,0
20.10.2017 05:00:00 5,8 5,5 6 3 11 6 W 0,0
20.10.2017 04:00:00 6,8 6,5 8 4 11 6 W 0,0
20.10.2017 03:00:00 5,8 5,2 6 3 9 5 W 0,0
20.10.2017 02:00:00 6,6 5,9 3 1 6 3 W -
20.10.2017 01:00:00 7,9 7,2 0 0 10 5 N 0,0
20.10.2017 00:00:00 6,8 5,9 2 1 6 3 N 0,0
19.10.2017 23:00:00 7,0 5,5 1 0 4 2 WNW 0,0
19.10.2017 22:00:00 7,9 5,4 0 0 3 1 SW 0,0
19.10.2017 21:00:00 9,4 5,8 0 0 9 5 N 0,0
19.10.2017 20:00:00 9,6 6,0 4 2 11 6 NNW -
19.10.2017 19:00:00 9,9 5,9 7 4 14 8 NNW 0,0
19.10.2017 18:00:00 11,1 4,6 6 3 14 7 NNW 0,0
19.10.2017 17:00:00 12,1 3,6 3 1 10 5 WNW 0,0
19.10.2017 16:00:00 11,8 2,8 5 3 11 6 NNE 0,0
19.10.2017 15:00:00 11,5 3,1 3 2 16 9 NE 0,0
19.10.2017 14:00:00 9,9 3,2 3 2 10 5 SE -
19.10.2017 13:00:00 8,6 3,3 2 1 11 6 E 0,0
19.10.2017 12:00:00 7,8 3,3 4 2 8 5 ESE 0,0
19.10.2017 11:00:00 6,5 2,6 2 1 8 4 ESE 0,0
19.10.2017 10:00:00 4,2 2,7 0 0 5 3 N 0,0
19.10.2017 09:00:00 3,3 1,8 4 2 10 5 WSW 0,0
19.10.2017 08:00:00 2,8 1,2 2 1 9 5 WNW -
19.10.2017 07:00:00 3,1 1,2 3 2 8 5 W 0,0
19.10.2017 06:00:00 3,5 1,5 8 5 16 8 W 0,0
19.10.2017 05:00:00 2,3 0,5 8 4 13 7 W 0,0
19.10.2017 04:00:00 2,8 1,0 3 1 13 7 WNW 0,0
19.10.2017 03:00:00 3,3 1,2 6 3 16 8 WNW 0,0
19.10.2017 02:00:00 4,5 2,4 12 6 18 10 W -
19.10.2017 01:00:00 3,1 1,6 3 2 12 6 W 0,0
19.10.2017 00:00:00 4,0 2,2 8 4 17 9 W 0,0
18.10.2017 23:00:00 4,6 2,6 6 4 14 8 W 0,0
18.10.2017 22:00:00 4,8 2,0 6 3 22 12 W 0,0
18.10.2017 21:00:00 6,1 2,9 16 8 24 13 W 0,0
18.10.2017 20:00:00 6,7 3,1 15 8 40 21 W -
18.10.2017 19:00:00 8,9 1,3 13 7 30 16 WNW 0,0
18.10.2017 18:00:00 10,5 0,5 22 12 36 20 WSW 0,0
18.10.2017 17:00:00 11,5 0,9 18 10 34 18 W 0,0
18.10.2017 16:00:00 10,7 0,7 22 12 34 18 W 0,0
18.10.2017 15:00:00 10,7 1,8 15 8 24 13 WNW 0,0
18.10.2017 14:00:00 10,6 1,2 14 7 26 14 W -
18.10.2017 13:00:00 9,5 2,1 12 6 19 10 W 0,0
18.10.2017 12:00:00 8,5 6,0 2 1 9 5 ESE 0,0
18.10.2017 11:00:00 7,4 6,3 4 2 10 5 N 0,0
18.10.2017 10:00:00 7,1 6,8 4 2 12 7 ENE 0,1
18.10.2017 09:00:00 6,9 6,6 9 5 18 10 SE 0,1
18.10.2017 08:00:00 6,9 6,6 8 4 28 15 E -
18.10.2017 07:00:00 7,0 6,7 16 8 24 13 SE 0,4
18.10.2017 06:00:00 6,9 6,3 19 11 30 16 SE 0,0
18.10.2017 05:00:00 7,2 5,7 11 6 24 13 SSE 0,0
18.10.2017 04:00:00 7,6 5,9 13 7 24 13 S 0,1
18.10.2017 03:00:00 7,9 5,4 10 5 19 11 S 0,2
18.10.2017 02:00:00 8,6 3,3 11 6 18 10 SSE -
18.10.2017 01:00:00 9,8 2,2 8 4 25 14 S 0,0
18.10.2017 00:00:00 10,1 1,7 16 9 26 14 SSE 0,0
17.10.2017 23:00:00 8,0 2,5 1 0 11 6 ESE 0,0
17.10.2017 22:00:00 8,0 1,8 1 0 13 7 WSW 0,0
17.10.2017 21:00:00 8,9 1,1 1 1 17 9 SE 0,0
17.10.2017 20:00:00 10,6 1,2 7 4 61 33 SSW -
17.10.2017 19:00:00 12,4 1,7 13 7 29 16 S 0,0
17.10.2017 18:00:00 12,7 2,3 15 8 35 19 S 0,0
17.10.2017 17:00:00 13,3 2,6 11 6 37 20 S 0,0
17.10.2017 16:00:00 14,3 5,1 15 8 45 24 S 0,0
17.10.2017 15:00:00 13,7 5,4 25 13 70 38 S 0,0
17.10.2017 14:00:00 13,3 9,4 18 10 33 18 S -
17.10.2017 13:00:00 13,1 12,2 17 9 27 14 SSE 0,4
17.10.2017 12:00:00 12,1 11,6 11 6 23 12 ESE 1,7
17.10.2017 11:00:00 11,9 11,4 15 8 22 12 SSE 0,0
17.10.2017 10:00:00 11,0 10,5 11 6 20 11 SE 0,1
17.10.2017 09:00:00 10,4 9,9 10 5 20 11 ESE 1,1
17.10.2017 08:00:00 10,6 9,5 7 4 15 8 ESE -
17.10.2017 07:00:00 10,8 8,7 6 3 10 5 E 0,0
17.10.2017 06:00:00 11,0 8,1 2 1 6 3 NE 0,0
17.10.2017 05:00:00 11,3 9,4 3 1 4 2 N 0,0
17.10.2017 04:00:00 11,4 9,3 0 0 5 3 W 0,0
17.10.2017 03:00:00 11,4 9,0 0 0 7 4 ESE 0,1
17.10.2017 02:00:00 12,0 7,7 2 1 10 6 SE -
17.10.2017 01:00:00 12,5 5,9 4 2 8 4 E 0,0
17.10.2017 00:00:00 13,5 5,4 1 1 8 4 E 0,0
16.10.2017 23:00:00 14,6 5,4 4 2 11 6 ENE 0,0
16.10.2017 22:00:00 15,1 5,6 4 2 12 7 E 0,0
16.10.2017 21:00:00 15,5 6,0 3 2 9 5 ENE 0,0
16.10.2017 20:00:00 15,5 6,0 1 1 8 4 NE -
16.10.2017 19:00:00 16,4 6,3 4 2 17 9 ESE 0,0
16.10.2017 18:00:00 16,5 6,4 8 5 18 10 NE 0,0
16.10.2017 17:00:00 17,1 6,0 7 4 21 11 NE 0,0
16.10.2017 16:00:00 18,2 7,0 12 7 23 12 SE 0,0
16.10.2017 15:00:00 16,0 7,2 1 1 25 13 NE 0,0
16.10.2017 14:00:00 16,1 7,9 8 4 17 9 ESE -
16.10.2017 13:00:00 13,3 6,7 8 5 16 9 NNW 0,0
16.10.2017 12:00:00 11,6 5,3 8 4 14 8 N 0,0
16.10.2017 11:00:00 12,4 5,3 7 4 14 8 N 0,0
16.10.2017 10:00:00 11,2 4,9 1 0 6 3 E 0,0
16.10.2017 09:00:00 11,1 4,1 2 1 6 3 W 0,0
16.10.2017 08:00:00 12,0 4,7 0 0 8 4 NNE -
16.10.2017 07:00:00 11,9 4,6 1 1 10 6 NE 0,0
16.10.2017 06:00:00 12,6 4,3 2 1 16 8 ENE 0,0
16.10.2017 05:00:00 13,4 4,8 4 2 10 6 SE 0,0
16.10.2017 04:00:00 14,4 5,5 6 3 12 6 ESE 0,0
16.10.2017 03:00:00 14,7 5,8 6 3 16 9 E 0,0
16.10.2017 02:00:00 15,2 5,7 4 2 18 10 S -
16.10.2017 01:00:00 15,9 6,4 9 5 19 10 SE 0,0
16.10.2017 00:00:00 15,1 6,7 5 3 18 10 S 0,0
15.10.2017 23:00:00 13,2 5,6 2 1 7 4 S 0,0
15.10.2017 22:00:00 13,7 5,6 3 2 7 4 SSE 0,0
15.10.2017 21:00:00 15,1 5,6 2 1 9 5 SSE 0,0
15.10.2017 20:00:00 18,7 7,2 8 4 27 14 ESE -
15.10.2017 19:00:00 20,9 7,2 11 6 40 21 SE 0,0
15.10.2017 18:00:00 21,8 6,9 17 9 31 17 S 0,0
15.10.2017 17:00:00 23,7 7,8 11 6 26 14 ESE 0,0
15.10.2017 16:00:00 24,0 8,4 11 6 22 12 E 0,0
15.10.2017 15:00:00 22,0 8,5 8 5 18 10 NNE 0,0
15.10.2017 14:00:00 20,4 7,8 6 3 15 8 NE -
15.10.2017 13:00:00 16,8 6,3 5 3 12 6 N 0,0
15.10.2017 12:00:00 16,1 5,7 6 4 16 9 NNE 0,0

tt = Température de l'air
td = dewpoint
ff = Vitesse du vent
fx = gusts
dd = Direction du vent
rr = Quantités de précipitations

stations d'obs. à proximité